sensor_id;sensor_type;location;lat;lon;timestamp;temperature;humidity
11091;DHT22;5599;52.210;21.046;2023-05-29T00:02:09;14.20;1.00
11091;DHT22;5599;52.210;21.046;2023-05-29T00:04:39;14.00;1.00
11091;DHT22;5599;52.210;21.046;2023-05-29T00:07:08;14.00;99.90
11091;DHT22;5599;52.210;21.046;2023-05-29T00:09:37;13.90;1.00
11091;DHT22;5599;52.210;21.046;2023-05-29T00:12:07;13.80;1.00
11091;DHT22;5599;52.210;21.046;2023-05-29T00:14:36;13.80;1.00
11091;DHT22;5599;52.210;21.046;2023-05-29T00:17:07;13.80;1.00
11091;DHT22;5599;52.210;21.046;2023-05-29T00:19:37;13.80;1.00
11091;DHT22;5599;52.210;21.046;2023-05-29T00:22:06;13.70;1.00
11091;DHT22;5599;52.210;21.046;2023-05-29T00:24:35;13.70;99.90
11091;DHT22;5599;52.210;21.046;2023-05-29T00:27:05;13.70;99.90
11091;DHT22;5599;52.210;21.046;2023-05-29T00:29:34;13.70;99.90
11091;DHT22;5599;52.210;21.046;2023-05-29T00:32:08;13.60;92.40
11091;DHT22;5599;52.210;21.046;2023-05-29T00:34:37;13.60;99.90
11091;DHT22;5599;52.210;21.046;2023-05-29T00:37:06;13.60;99.90
11091;DHT22;5599;52.210;21.046;2023-05-29T00:39:36;13.60;59.30
11091;DHT22;5599;52.210;21.046;2023-05-29T00:42:05;13.60;99.90
11091;DHT22;5599;52.210;21.046;2023-05-29T00:44:35;13.60;1.00
11091;DHT22;5599;52.210;21.046;2023-05-29T00:47:04;13.50;1.00
11091;DHT22;5599;52.210;21.046;2023-05-29T00:49:36;13.50;1.00
11091;DHT22;5599;52.210;21.046;2023-05-29T00:52:07;13.40;1.00
11091;DHT22;5599;52.210;21.046;2023-05-29T00:54:38;13.40;90.90
11091;DHT22;5599;52.210;21.046;2023-05-29T00:57:08;13.30;99.90
11091;DHT22;5599;52.210;21.046;2023-05-29T00:59:38;13.20;1.00
11091;DHT22;5599;52.210;21.046;2023-05-29T01:02:08;13.20;74.40
11091;DHT22;5599;52.210;21.046;2023-05-29T01:04:40;13.20;34.90
11091;DHT22;5599;52.210;21.046;2023-05-29T01:07:09;13.20;14.50
11091;DHT22;5599;52.210;21.046;2023-05-29T01:09:39;13.20;99.90
11091;DHT22;5599;52.210;21.046;2023-05-29T01:12:20;13.10;99.90
11091;DHT22;5599;52.210;21.046;2023-05-29T01:15:01;13.10;99.90
11091;DHT22;5599;52.210;21.046;2023-05-29T01:17:40;13.00;99.90
11091;DHT22;5599;52.210;21.046;2023-05-29T01:20:24;13.00;99.90
11091;DHT22;5599;52.210;21.046;2023-05-29T01:26:11;13.00;1.00
11091;DHT22;5599;52.210;21.046;2023-05-29T01:28:48;13.00;1.00
11091;DHT22;5599;52.210;21.046;2023-05-29T01:31:20;12.90;99.90
11091;DHT22;5599;52.210;21.046;2023-05-29T01:33:54;12.90;42.10
11091;DHT22;5599;52.210;21.046;2023-05-29T01:36:24;12.90;65.80
11091;DHT22;5599;52.210;21.046;2023-05-29T01:38:56;12.90;99.90
11091;DHT22;5599;52.210;21.046;2023-05-29T01:41:26;12.80;99.90
11091;DHT22;5599;52.210;21.046;2023-05-29T01:44:01;12.80;99.90
11091;DHT22;5599;52.210;21.046;2023-05-29T01:46:31;12.80;1.00
11091;DHT22;5599;52.210;21.046;2023-05-29T01:49:00;12.90;1.00
11091;DHT22;5599;52.210;21.046;2023-05-29T01:51:29;12.90;1.00
11091;DHT22;5599;52.210;21.046;2023-05-29T01:54:00;12.80;1.00
11091;DHT22;5599;52.210;21.046;2023-05-29T01:56:30;12.80;1.00
11091;DHT22;5599;52.210;21.046;2023-05-29T01:59:02;12.80;42.20
11091;DHT22;5599;52.210;21.046;2023-05-29T02:01:32;12.70;29.70
11091;DHT22;5599;52.210;21.046;2023-05-29T02:04:01;12.80;99.90
11091;DHT22;5599;52.210;21.046;2023-05-29T02:06:30;12.70;99.90
11091;DHT22;5599;52.210;21.046;2023-05-29T02:09:00;12.70;1.00
11091;DHT22;5599;52.210;21.046;2023-05-29T02:11:30;12.60;1.00
11091;DHT22;5599;52.210;21.046;2023-05-29T02:14:01;12.50;94.40
11091;DHT22;5599;52.210;21.046;2023-05-29T02:16:32;12.50;79.70
11091;DHT22;5599;52.210;21.046;2023-05-29T02:19:03;12.50;99.90
11091;DHT22;5599;52.210;21.046;2023-05-29T02:21:33;12.50;99.90
11091;DHT22;5599;52.210;21.046;2023-05-29T02:24:04;12.50;99.90
11091;DHT22;5599;52.210;21.046;2023-05-29T02:26:34;12.50;2.30
11091;DHT22;5599;52.210;21.046;2023-05-29T02:29:06;12.40;99.90
11091;DHT22;5599;52.210;21.046;2023-05-29T02:31:36;12.50;99.90
11091;DHT22;5599;52.210;21.046;2023-05-29T02:34:05;12.40;99.90
11091;DHT22;5599;52.210;21.046;2023-05-29T02:36:34;12.40;1.00
11091;DHT22;5599;52.210;21.046;2023-05-29T02:39:05;12.30;99.90
11091;DHT22;5599;52.210;21.046;2023-05-29T02:41:34;12.30;99.90
11091;DHT22;5599;52.210;21.046;2023-05-29T02:44:05;12.20;99.90
11091;DHT22;5599;52.210;21.046;2023-05-29T02:46:35;12.30;1.00
11091;DHT22;5599;52.210;21.046;2023-05-29T02:49:04;12.30;1.00
11091;DHT22;5599;52.210;21.046;2023-05-29T02:51:33;12.30;99.90
11091;DHT22;5599;52.210;21.046;2023-05-29T02:54:03;12.40;99.90
11091;DHT22;5599;52.210;21.046;2023-05-29T02:56:32;12.40;1.00
11091;DHT22;5599;52.210;21.046;2023-05-29T02:59:02;12.40;1.00
11091;DHT22;5599;52.210;21.046;2023-05-29T03:01:32;12.40;1.00
11091;DHT22;5599;52.210;21.046;2023-05-29T03:04:02;12.40;1.00
11091;DHT22;5599;52.210;21.046;2023-05-29T03:06:31;12.50;98.30
11091;DHT22;5599;52.210;21.046;2023-05-29T03:09:03;12.50;1.00
11091;DHT22;5599;52.210;21.046;2023-05-29T03:11:34;12.50;1.00
11091;DHT22;5599;52.210;21.046;2023-05-29T03:14:03;12.50;99.90
11091;DHT22;5599;52.210;21.046;2023-05-29T03:16:35;12.50;99.90
11091;DHT22;5599;52.210;21.046;2023-05-29T03:19:06;12.50;99.90
11091;DHT22;5599;52.210;21.046;2023-05-29T03:21:35;12.60;1.00
11091;DHT22;5599;52.210;21.046;2023-05-29T03:24:05;12.60;1.00
11091;DHT22;5599;52.210;21.046;2023-05-29T03:26:36;12.70;48.30
11091;DHT22;5599;52.210;21.046;2023-05-29T03:29:06;12.70;1.00
11091;DHT22;5599;52.210;21.046;2023-05-29T03:31:37;12.70;99.90
11091;DHT22;5599;52.210;21.046;2023-05-29T03:34:07;12.80;1.00
11091;DHT22;5599;52.210;21.046;2023-05-29T03:36:41;13.10;99.90
11091;DHT22;5599;52.210;21.046;2023-05-29T03:39:10;13.50;1.00
11091;DHT22;5599;52.210;21.046;2023-05-29T03:41:40;13.90;1.00
11091;DHT22;5599;52.210;21.046;2023-05-29T03:44:10;14.20;1.00
11091;DHT22;5599;52.210;21.046;2023-05-29T03:46:41;14.60;3.80
11091;DHT22;5599;52.210;21.046;2023-05-29T03:49:11;15.00;99.90
11091;DHT22;5599;52.210;21.046;2023-05-29T03:51:42;15.40;99.90
11091;DHT22;5599;52.210;21.046;2023-05-29T03:54:12;15.70;16.10
11091;DHT22;5599;52.210;21.046;2023-05-29T03:56:43;16.00;9.20
11091;DHT22;5599;52.210;21.046;2023-05-29T03:59:14;16.40;6.40
11091;DHT22;5599;52.210;21.046;2023-05-29T04:01:47;16.70;1.00
11091;DHT22;5599;52.210;21.046;2023-05-29T04:04:17;17.10;1.00
11091;DHT22;5599;52.210;21.046;2023-05-29T04:06:46;17.50;1.00
11091;DHT22;5599;52.210;21.046;2023-05-29T04:09:18;17.70;1.00
11091;DHT22;5599;52.210;21.046;2023-05-29T04:11:47;18.10;1.00
11091;DHT22;5599;52.210;21.046;2023-05-29T04:14:16;18.40;1.00
11091;DHT22;5599;52.210;21.046;2023-05-29T04:16:48;18.60;1.00
11091;DHT22;5599;52.210;21.046;2023-05-29T04:19:18;18.90;1.00
11091;DHT22;5599;52.210;21.046;2023-05-29T04:21:48;19.20;1.00
11091;DHT22;5599;52.210;21.046;2023-05-29T04:24:18;19.50;1.00
11091;DHT22;5599;52.210;21.046;2023-05-29T04:26:47;19.80;1.00
11091;DHT22;5599;52.210;21.046;2023-05-29T04:29:17;20.10;1.00
11091;DHT22;5599;52.210;21.046;2023-05-29T04:31:48;20.40;1.00
11091;DHT22;5599;52.210;21.046;2023-05-29T04:34:19;20.60;1.00
11091;DHT22;5599;52.210;21.046;2023-05-29T04:36:48;20.90;1.00
11091;DHT22;5599;52.210;21.046;2023-05-29T04:39:17;21.20;1.00
11091;DHT22;5599;52.210;21.046;2023-05-29T04:41:50;21.30;1.00
11091;DHT22;5599;52.210;21.046;2023-05-29T04:44:22;21.50;1.00
11091;DHT22;5599;52.210;21.046;2023-05-29T04:46:56;21.80;1.00
11091;DHT22;5599;52.210;21.046;2023-05-29T04:49:25;22.30;1.00
11091;DHT22;5599;52.210;21.046;2023-05-29T04:51:55;22.70;1.00
11091;DHT22;5599;52.210;21.046;2023-05-29T04:54:28;23.00;1.00
11091;DHT22;5599;52.210;21.046;2023-05-29T04:56:59;23.20;1.00
11091;DHT22;5599;52.210;21.046;2023-05-29T04:59:33;23.60;1.00
11091;DHT22;5599;52.210;21.046;2023-05-29T05:02:04;23.90;1.00
11091;DHT22;5599;52.210;21.046;2023-05-29T05:04:35;24.10;1.00
11091;DHT22;5599;52.210;21.046;2023-05-29T05:07:05;24.10;1.00
11091;DHT22;5599;52.210;21.046;2023-05-29T05:09:35;24.10;1.00
11091;DHT22;5599;52.210;21.046;2023-05-29T05:12:06;24.10;1.00
11091;DHT22;5599;52.210;21.046;2023-05-29T05:14:38;24.50;1.00
11091;DHT22;5599;52.210;21.046;2023-05-29T05:17:09;24.60;1.00
11091;DHT22;5599;52.210;21.046;2023-05-29T05:19:38;24.70;1.00
11091;DHT22;5599;52.210;21.046;2023-05-29T05:22:08;25.00;1.00
11091;DHT22;5599;52.210;21.046;2023-05-29T05:24:38;25.50;1.00
11091;DHT22;5599;52.210;21.046;2023-05-29T05:27:07;26.00;1.00
11091;DHT22;5599;52.210;21.046;2023-05-29T05:29:36;26.40;1.00
11091;DHT22;5599;52.210;21.046;2023-05-29T05:32:06;27.10;1.00
11091;DHT22;5599;52.210;21.046;2023-05-29T05:34:38;27.50;1.00
11091;DHT22;5599;52.210;21.046;2023-05-29T05:37:08;27.70;1.00
11091;DHT22;5599;52.210;21.046;2023-05-29T05:39:40;28.20;1.00
11091;DHT22;5599;52.210;21.046;2023-05-29T05:42:09;28.60;1.00
11091;DHT22;5599;52.210;21.046;2023-05-29T05:44:49;28.90;1.00
11091;DHT22;5599;52.210;21.046;2023-05-29T05:47:19;29.20;1.00
11091;DHT22;5599;52.210;21.046;2023-05-29T05:49:50;29.50;1.00
11091;DHT22;5599;52.210;21.046;2023-05-29T05:52:19;29.90;1.00
11091;DHT22;5599;52.210;21.046;2023-05-29T05:54:49;30.10;1.00
11091;DHT22;5599;52.210;21.046;2023-05-29T05:57:18;30.50;1.00
11091;DHT22;5599;52.210;21.046;2023-05-29T05:59:48;30.70;1.00
11091;DHT22;5599;52.210;21.046;2023-05-29T06:02:17;30.80;1.00
11091;DHT22;5599;52.210;21.046;2023-05-29T06:04:47;30.90;1.00
11091;DHT22;5599;52.210;21.046;2023-05-29T06:07:19;31.20;1.00
11091;DHT22;5599;52.210;21.046;2023-05-29T06:09:49;31.30;1.00
11091;DHT22;5599;52.210;21.046;2023-05-29T06:12:18;31.40;1.00
11091;DHT22;5599;52.210;21.046;2023-05-29T06:14:59;31.60;1.00
11091;DHT22;5599;52.210;21.046;2023-05-29T06:17:28;31.80;1.00
11091;DHT22;5599;52.210;21.046;2023-05-29T06:19:58;31.10;1.00
11091;DHT22;5599;52.210;21.046;2023-05-29T06:22:30;30.30;1.00
11091;DHT22;5599;52.210;21.046;2023-05-29T06:24:59;29.80;1.00
11091;DHT22;5599;52.210;21.046;2023-05-29T06:27:32;30.20;1.00
11091;DHT22;5599;52.210;21.046;2023-05-29T06:30:04;30.40;1.00
11091;DHT22;5599;52.210;21.046;2023-05-29T06:32:35;30.20;1.00
11091;DHT22;5599;52.210;21.046;2023-05-29T06:35:07;30.50;1.00
11091;DHT22;5599;52.210;21.046;2023-05-29T06:37:39;30.60;1.00
11091;DHT22;5599;52.210;21.046;2023-05-29T06:40:09;29.70;1.00
11091;DHT22;5599;52.210;21.046;2023-05-29T06:42:39;29.50;1.00
11091;DHT22;5599;52.210;21.046;2023-05-29T06:45:14;29.50;1.00
11091;DHT22;5599;52.210;21.046;2023-05-29T06:47:45;30.20;1.00
11091;DHT22;5599;52.210;21.046;2023-05-29T06:50:16;30.70;1.00
11091;DHT22;5599;52.210;21.046;2023-05-29T06:52:47;30.90;1.00
11091;DHT22;5599;52.210;21.046;2023-05-29T06:55:28;30.60;1.00
11091;DHT22;5599;52.210;21.046;2023-05-29T06:57:58;30.50;1.00
11091;DHT22;5599;52.210;21.046;2023-05-29T07:00:27;30.60;1.00
11091;DHT22;5599;52.210;21.046;2023-05-29T07:03:20;30.30;1.00
11091;DHT22;5599;52.210;21.046;2023-05-29T07:05:50;29.50;1.00
11091;DHT22;5599;52.210;21.046;2023-05-29T07:08:24;29.00;1.00
11091;DHT22;5599;52.210;21.046;2023-05-29T07:10:54;29.30;1.00
11091;DHT22;5599;52.210;21.046;2023-05-29T07:13:25;30.00;1.00
11091;DHT22;5599;52.210;21.046;2023-05-29T07:15:55;29.90;1.00
11091;DHT22;5599;52.210;21.046;2023-05-29T07:18:30;29.90;1.00
11091;DHT22;5599;52.210;21.046;2023-05-29T07:21:01;29.70;1.00
11091;DHT22;5599;52.210;21.046;2023-05-29T07:23:32;29.70;1.00
11091;DHT22;5599;52.210;21.046;2023-05-29T07:26:02;29.60;1.00
11091;DHT22;5599;52.210;21.046;2023-05-29T07:28:31;29.00;1.00
11091;DHT22;5599;52.210;21.046;2023-05-29T07:31:01;28.50;1.00
11091;DHT22;5599;52.210;21.046;2023-05-29T07:33:30;28.80;1.00
11091;DHT22;5599;52.210;21.046;2023-05-29T07:36:00;29.30;1.00
11091;DHT22;5599;52.210;21.046;2023-05-29T07:38:31;29.50;1.00
11091;DHT22;5599;52.210;21.046;2023-05-29T07:41:01;30.20;1.00
11091;DHT22;5599;52.210;21.046;2023-05-29T07:43:32;31.00;1.00
11091;DHT22;5599;52.210;21.046;2023-05-29T07:46:05;31.40;1.00
11091;DHT22;5599;52.210;21.046;2023-05-29T07:48:38;31.40;1.00
11091;DHT22;5599;52.210;21.046;2023-05-29T07:51:08;30.20;1.00
11091;DHT22;5599;52.210;21.046;2023-05-29T07:53:44;29.90;1.00
11091;DHT22;5599;52.210;21.046;2023-05-29T07:56:14;30.20;1.00
11091;DHT22;5599;52.210;21.046;2023-05-29T07:58:45;30.80;1.00
11091;DHT22;5599;52.210;21.046;2023-05-29T08:01:15;31.60;1.00
11091;DHT22;5599;52.210;21.046;2023-05-29T08:03:45;32.30;1.00
11091;DHT22;5599;52.210;21.046;2023-05-29T08:06:23;33.00;1.00
11091;DHT22;5599;52.210;21.046;2023-05-29T08:08:58;33.50;1.00
11091;DHT22;5599;52.210;21.046;2023-05-29T08:11:28;33.90;1.00
11091;DHT22;5599;52.210;21.046;2023-05-29T08:13:58;34.30;1.00
11091;DHT22;5599;52.210;21.046;2023-05-29T08:16:28;34.40;1.00
11091;DHT22;5599;52.210;21.046;2023-05-29T08:18:58;34.30;1.00
11091;DHT22;5599;52.210;21.046;2023-05-29T08:21:28;34.70;1.00
11091;DHT22;5599;52.210;21.046;2023-05-29T08:23:59;35.00;1.00
11091;DHT22;5599;52.210;21.046;2023-05-29T08:26:28;35.10;1.00
11091;DHT22;5599;52.210;21.046;2023-05-29T08:28:57;34.90;1.00
11091;DHT22;5599;52.210;21.046;2023-05-29T08:31:27;34.70;1.00
11091;DHT22;5599;52.210;21.046;2023-05-29T08:33:56;32.70;1.00
11091;DHT22;5599;52.210;21.046;2023-05-29T08:36:25;31.50;1.00
11091;DHT22;5599;52.210;21.046;2023-05-29T08:38:55;30.40;1.00
11091;DHT22;5599;52.210;21.046;2023-05-29T08:41:31;29.50;1.00
11091;DHT22;5599;52.210;21.046;2023-05-29T08:44:04;29.70;1.00
11091;DHT22;5599;52.210;21.046;2023-05-29T08:46:35;29.60;1.00
11091;DHT22;5599;52.210;21.046;2023-05-29T08:49:08;30.00;1.00
11091;DHT22;5599;52.210;21.046;2023-05-29T08:51:41;29.70;1.00
11091;DHT22;5599;52.210;21.046;2023-05-29T08:54:14;29.40;1.00
11091;DHT22;5599;52.210;21.046;2023-05-29T08:56:45;29.80;1.00
11091;DHT22;5599;52.210;21.046;2023-05-29T08:59:15;30.50;1.00
11091;DHT22;5599;52.210;21.046;2023-05-29T09:01:45;31.10;1.00
11091;DHT22;5599;52.210;21.046;2023-05-29T09:04:14;31.40;1.00
11091;DHT22;5599;52.210;21.046;2023-05-29T09:06:45;30.60;1.00
11091;DHT22;5599;52.210;21.046;2023-05-29T09:09:17;29.60;1.00
11091;DHT22;5599;52.210;21.046;2023-05-29T09:11:48;28.30;1.00
11091;DHT22;5599;52.210;21.046;2023-05-29T09:14:32;28.50;1.00
11091;DHT22;5599;52.210;21.046;2023-05-29T09:17:04;29.40;1.00
11091;DHT22;5599;52.210;21.046;2023-05-29T09:19:34;30.20;1.00
11091;DHT22;5599;52.210;21.046;2023-05-29T09:22:06;30.80;1.00
11091;DHT22;5599;52.210;21.046;2023-05-29T09:24:38;31.40;1.00
11091;DHT22;5599;52.210;21.046;2023-05-29T09:27:09;31.80;1.00
11091;DHT22;5599;52.210;21.046;2023-05-29T09:29:41;31.80;1.00
11091;DHT22;5599;52.210;21.046;2023-05-29T09:32:13;31.70;1.00
11091;DHT22;5599;52.210;21.046;2023-05-29T09:34:43;31.80;1.00
11091;DHT22;5599;52.210;21.046;2023-05-29T09:37:14;31.70;1.00
11091;DHT22;5599;52.210;21.046;2023-05-29T09:39:45;31.80;1.00
11091;DHT22;5599;52.210;21.046;2023-05-29T09:42:17;32.00;1.00
11091;DHT22;5599;52.210;21.046;2023-05-29T09:44:49;32.00;1.00
11091;DHT22;5599;52.210;21.046;2023-05-29T09:47:20;32.10;1.00
11091;DHT22;5599;52.210;21.046;2023-05-29T09:49:50;32.30;1.00
11091;DHT22;5599;52.210;21.046;2023-05-29T09:52:21;32.40;1.00
11091;DHT22;5599;52.210;21.046;2023-05-29T09:54:52;32.40;1.00
11091;DHT22;5599;52.210;21.046;2023-05-29T09:57:27;32.20;1.00
11091;DHT22;5599;52.210;21.046;2023-05-29T09:59:56;31.40;1.00
11091;DHT22;5599;52.210;21.046;2023-05-29T10:02:38;30.60;1.00
11091;DHT22;5599;52.210;21.046;2023-05-29T10:05:08;30.60;1.00
11091;DHT22;5599;52.210;21.046;2023-05-29T10:07:40;29.40;1.00
11091;DHT22;5599;52.210;21.046;2023-05-29T10:10:13;29.20;1.00
11091;DHT22;5599;52.210;21.046;2023-05-29T10:12:47;29.00;1.00
11091;DHT22;5599;52.210;21.046;2023-05-29T10:15:17;28.80;1.00
11091;DHT22;5599;52.210;21.046;2023-05-29T10:17:51;28.40;1.00
11091;DHT22;5599;52.210;21.046;2023-05-29T10:20:22;28.00;1.00
11091;DHT22;5599;52.210;21.046;2023-05-29T10:22:54;27.70;1.00
11091;DHT22;5599;52.210;21.046;2023-05-29T10:25:25;27.20;1.00
11091;DHT22;5599;52.210;21.046;2023-05-29T10:27:58;27.30;1.00
11091;DHT22;5599;52.210;21.046;2023-05-29T10:30:34;27.50;1.00
11091;DHT22;5599;52.210;21.046;2023-05-29T10:33:17;27.90;1.00
11091;DHT22;5599;52.210;21.046;2023-05-29T10:35:55;27.40;1.00
11091;DHT22;5599;52.210;21.046;2023-05-29T10:38:29;26.70;1.00
11091;DHT22;5599;52.210;21.046;2023-05-29T10:41:28;26.20;1.00
11091;DHT22;5599;52.210;21.046;2023-05-29T10:44:00;25.60;1.00
11091;DHT22;5599;52.210;21.046;2023-05-29T10:47:01;25.40;1.00
11091;DHT22;5599;52.210;21.046;2023-05-29T10:49:30;24.90;1.00
11091;DHT22;5599;52.210;21.046;2023-05-29T10:52:00;24.50;1.00
11091;DHT22;5599;52.210;21.046;2023-05-29T10:54:41;24.70;1.00
11091;DHT22;5599;52.210;21.046;2023-05-29T10:57:21;24.80;1.00
11091;DHT22;5599;52.210;21.046;2023-05-29T11:00:00;24.90;1.00
11091;DHT22;5599;52.210;21.046;2023-05-29T11:02:38;25.30;1.00
11091;DHT22;5599;52.210;21.046;2023-05-29T11:05:21;25.30;1.00
11091;DHT22;5599;52.210;21.046;2023-05-29T11:07:56;25.40;1.00
11091;DHT22;5599;52.210;21.046;2023-05-29T11:10:43;25.60;1.00
11091;DHT22;5599;52.210;21.046;2023-05-29T11:13:24;25.90;1.00
11091;DHT22;5599;52.210;21.046;2023-05-29T11:16:13;26.40;1.00
11091;DHT22;5599;52.210;21.046;2023-05-29T11:18:43;26.70;1.00
11091;DHT22;5599;52.210;21.046;2023-05-29T11:21:30;27.10;1.00
11091;DHT22;5599;52.210;21.046;2023-05-29T11:24:02;27.70;1.00
11091;DHT22;5599;52.210;21.046;2023-05-29T11:26:37;28.00;1.00
11091;DHT22;5599;52.210;21.046;2023-05-29T11:29:06;28.40;1.00
11091;DHT22;5599;52.210;21.046;2023-05-29T11:31:40;28.70;1.00
11091;DHT22;5599;52.210;21.046;2023-05-29T11:34:14;28.80;1.00
11091;DHT22;5599;52.210;21.046;2023-05-29T11:36:44;28.80;1.00
11091;DHT22;5599;52.210;21.046;2023-05-29T11:39:17;28.90;1.00
11091;DHT22;5599;52.210;21.046;2023-05-29T11:41:50;28.90;1.00
11091;DHT22;5599;52.210;21.046;2023-05-29T11:44:21;28.80;1.00
11091;DHT22;5599;52.210;21.046;2023-05-29T11:47:01;28.60;1.00
11091;DHT22;5599;52.210;21.046;2023-05-29T11:49:33;28.30;1.00
11091;DHT22;5599;52.210;21.046;2023-05-29T11:52:07;27.70;1.00
11091;DHT22;5599;52.210;21.046;2023-05-29T11:54:39;27.20;1.00
11091;DHT22;5599;52.210;21.046;2023-05-29T11:57:20;26.90;1.00
11091;DHT22;5599;52.210;21.046;2023-05-29T11:59:50;25.90;1.00
11091;DHT22;5599;52.210;21.046;2023-05-29T12:02:30;25.50;1.00
11091;DHT22;5599;52.210;21.046;2023-05-29T12:05:01;25.40;1.00
11091;DHT22;5599;52.210;21.046;2023-05-29T12:07:31;25.70;1.00
11091;DHT22;5599;52.210;21.046;2023-05-29T12:10:09;25.80;1.00
11091;DHT22;5599;52.210;21.046;2023-05-29T12:12:41;26.20;1.00
11091;DHT22;5599;52.210;21.046;2023-05-29T12:15:11;26.60;1.00
11091;DHT22;5599;52.210;21.046;2023-05-29T12:17:43;27.00;1.00
11091;DHT22;5599;52.210;21.046;2023-05-29T12:20:14;26.80;1.00
11091;DHT22;5599;52.210;21.046;2023-05-29T12:22:45;25.90;1.00
11091;DHT22;5599;52.210;21.046;2023-05-29T12:25:16;25.40;1.00
11091;DHT22;5599;52.210;21.046;2023-05-29T12:27:47;25.50;1.00
11091;DHT22;5599;52.210;21.046;2023-05-29T12:30:21;25.90;1.00
11091;DHT22;5599;52.210;21.046;2023-05-29T12:33:02;26.10;1.00
11091;DHT22;5599;52.210;21.046;2023-05-29T12:35:34;26.50;1.00
11091;DHT22;5599;52.210;21.046;2023-05-29T12:38:07;26.80;1.00
11091;DHT22;5599;52.210;21.046;2023-05-29T12:40:36;27.00;1.00
11091;DHT22;5599;52.210;21.046;2023-05-29T12:43:07;27.20;1.00
11091;DHT22;5599;52.210;21.046;2023-05-29T12:45:39;27.10;1.00
11091;DHT22;5599;52.210;21.046;2023-05-29T12:48:10;27.00;1.00
11091;DHT22;5599;52.210;21.046;2023-05-29T12:50:40;26.80;1.00
11091;DHT22;5599;52.210;21.046;2023-05-29T12:53:11;26.80;1.00
11091;DHT22;5599;52.210;21.046;2023-05-29T12:55:43;26.80;1.00
11091;DHT22;5599;52.210;21.046;2023-05-29T12:58:14;26.90;1.00
11091;DHT22;5599;52.210;21.046;2023-05-29T13:00:45;26.80;1.00
11091;DHT22;5599;52.210;21.046;2023-05-29T13:03:16;26.50;1.00
11091;DHT22;5599;52.210;21.046;2023-05-29T13:05:46;26.50;1.00
11091;DHT22;5599;52.210;21.046;2023-05-29T13:08:15;26.60;1.00
11091;DHT22;5599;52.210;21.046;2023-05-29T13:10:45;26.70;1.00
11091;DHT22;5599;52.210;21.046;2023-05-29T13:13:14;26.70;1.00
11091;DHT22;5599;52.210;21.046;2023-05-29T13:15:43;26.60;1.00
11091;DHT22;5599;52.210;21.046;2023-05-29T13:18:13;26.20;1.00
11091;DHT22;5599;52.210;21.046;2023-05-29T13:20:44;25.40;1.00
11091;DHT22;5599;52.210;21.046;2023-05-29T13:23:14;25.20;1.00
11091;DHT22;5599;52.210;21.046;2023-05-29T13:25:43;25.20;1.00
11091;DHT22;5599;52.210;21.046;2023-05-29T13:28:13;25.50;1.00
11091;DHT22;5599;52.210;21.046;2023-05-29T13:30:43;25.90;1.00
11091;DHT22;5599;52.210;21.046;2023-05-29T13:33:13;26.20;1.00
11091;DHT22;5599;52.210;21.046;2023-05-29T13:35:43;26.50;1.00
11091;DHT22;5599;52.210;21.046;2023-05-29T13:38:13;26.40;1.00
11091;DHT22;5599;52.210;21.046;2023-05-29T13:40:42;26.40;1.00
11091;DHT22;5599;52.210;21.046;2023-05-29T13:43:12;26.50;1.00
11091;DHT22;5599;52.210;21.046;2023-05-29T13:45:41;26.50;1.00
11091;DHT22;5599;52.210;21.046;2023-05-29T13:48:11;26.50;1.00
11091;DHT22;5599;52.210;21.046;2023-05-29T13:50:40;26.60;1.00
11091;DHT22;5599;52.210;21.046;2023-05-29T13:53:11;26.60;1.00
11091;DHT22;5599;52.210;21.046;2023-05-29T13:55:40;26.30;1.00
11091;DHT22;5599;52.210;21.046;2023-05-29T13:58:10;26.10;1.00
11091;DHT22;5599;52.210;21.046;2023-05-29T14:00:39;25.80;1.00
11091;DHT22;5599;52.210;21.046;2023-05-29T14:03:09;25.40;1.00
11091;DHT22;5599;52.210;21.046;2023-05-29T14:05:39;25.40;1.00
11091;DHT22;5599;52.210;21.046;2023-05-29T14:08:08;25.30;1.00
11091;DHT22;5599;52.210;21.046;2023-05-29T14:10:39;25.20;1.00
11091;DHT22;5599;52.210;21.046;2023-05-29T14:13:09;25.10;1.00
11091;DHT22;5599;52.210;21.046;2023-05-29T14:15:39;24.90;1.00
11091;DHT22;5599;52.210;21.046;2023-05-29T14:18:09;24.60;1.00
11091;DHT22;5599;52.210;21.046;2023-05-29T14:20:38;24.50;1.00
11091;DHT22;5599;52.210;21.046;2023-05-29T14:23:08;24.20;1.00
11091;DHT22;5599;52.210;21.046;2023-05-29T14:25:43;24.10;1.00
11091;DHT22;5599;52.210;21.046;2023-05-29T14:28:13;24.00;1.00
11091;DHT22;5599;52.210;21.046;2023-05-29T14:30:42;24.00;1.00
11091;DHT22;5599;52.210;21.046;2023-05-29T14:33:12;23.90;1.00
11091;DHT22;5599;52.210;21.046;2023-05-29T14:35:41;23.70;1.00
11091;DHT22;5599;52.210;21.046;2023-05-29T14:38:10;23.70;1.00
11091;DHT22;5599;52.210;21.046;2023-05-29T14:40:41;23.60;1.00
11091;DHT22;5599;52.210;21.046;2023-05-29T14:43:18;23.70;1.00
11091;DHT22;5599;52.210;21.046;2023-05-29T14:45:47;23.90;1.00
11091;DHT22;5599;52.210;21.046;2023-05-29T14:48:16;24.20;1.00
11091;DHT22;5599;52.210;21.046;2023-05-29T14:50:46;24.50;1.00
11091;DHT22;5599;52.210;21.046;2023-05-29T14:53:15;24.90;1.00
11091;DHT22;5599;52.210;21.046;2023-05-29T14:55:46;25.10;1.00
11091;DHT22;5599;52.210;21.046;2023-05-29T14:58:16;25.40;1.00
11091;DHT22;5599;52.210;21.046;2023-05-29T15:00:45;25.40;1.00
11091;DHT22;5599;52.210;21.046;2023-05-29T15:03:14;25.70;1.00
11091;DHT22;5599;52.210;21.046;2023-05-29T15:05:44;25.90;1.00
11091;DHT22;5599;52.210;21.046;2023-05-29T15:08:13;26.10;1.00
11091;DHT22;5599;52.210;21.046;2023-05-29T15:10:43;26.20;1.00
11091;DHT22;5599;52.210;21.046;2023-05-29T15:13:14;26.30;1.00
11091;DHT22;5599;52.210;21.046;2023-05-29T15:15:43;26.30;1.00
11091;DHT22;5599;52.210;21.046;2023-05-29T15:18:15;26.30;1.00
11091;DHT22;5599;52.210;21.046;2023-05-29T15:20:44;26.30;1.00
11091;DHT22;5599;52.210;21.046;2023-05-29T15:23:14;26.20;1.00
11091;DHT22;5599;52.210;21.046;2023-05-29T15:25:44;26.30;1.00
11091;DHT22;5599;52.210;21.046;2023-05-29T15:28:15;26.40;1.00
11091;DHT22;5599;52.210;21.046;2023-05-29T15:30:44;26.50;1.00
11091;DHT22;5599;52.210;21.046;2023-05-29T15:33:14;26.60;1.00
11091;DHT22;5599;52.210;21.046;2023-05-29T15:35:43;26.60;1.00
11091;DHT22;5599;52.210;21.046;2023-05-29T15:38:14;26.70;1.00
11091;DHT22;5599;52.210;21.046;2023-05-29T15:40:44;26.60;1.00
11091;DHT22;5599;52.210;21.046;2023-05-29T15:43:16;26.60;1.00
11091;DHT22;5599;52.210;21.046;2023-05-29T15:45:46;26.60;1.00
11091;DHT22;5599;52.210;21.046;2023-05-29T15:48:17;26.50;1.00
11091;DHT22;5599;52.210;21.046;2023-05-29T15:50:46;26.40;1.00
11091;DHT22;5599;52.210;21.046;2023-05-29T15:53:15;26.30;1.00
11091;DHT22;5599;52.210;21.046;2023-05-29T15:55:45;26.30;1.00
11091;DHT22;5599;52.210;21.046;2023-05-29T15:58:16;26.20;1.00
11091;DHT22;5599;52.210;21.046;2023-05-29T16:00:46;26.10;1.00
11091;DHT22;5599;52.210;21.046;2023-05-29T16:03:15;26.10;1.00
11091;DHT22;5599;52.210;21.046;2023-05-29T16:05:45;26.20;1.00
11091;DHT22;5599;52.210;21.046;2023-05-29T16:08:14;26.20;1.00
11091;DHT22;5599;52.210;21.046;2023-05-29T16:10:44;26.20;1.00
11091;DHT22;5599;52.210;21.046;2023-05-29T16:13:13;26.20;1.00
11091;DHT22;5599;52.210;21.046;2023-05-29T16:15:44;26.10;1.00